createdAt,value
2022-09-07T00:02:21.116Z,3.80
2022-09-07T00:04:47.670Z,8.48
2022-09-07T00:07:34.229Z,6.68
2022-09-07T00:10:21.229Z,5.97
2022-09-07T00:13:08.727Z,6.43
2022-09-07T00:15:55.278Z,6.38
2022-09-07T00:18:45.814Z,5.35
2022-09-07T00:21:32.830Z,5.85
2022-09-07T00:23:59.953Z,8.15
2022-09-07T00:26:29.302Z,6.70
2022-09-07T00:29:04.123Z,9.02
2022-09-07T00:31:31.409Z,4.03
2022-09-07T00:34:00.235Z,7.47
2022-09-07T00:36:27.219Z,6.00
2022-09-07T00:38:54.399Z,8.10
2022-09-07T00:41:22.565Z,7.32
2022-09-07T00:43:51.196Z,9.27
2022-09-07T00:46:26.178Z,4.45
2022-09-07T00:48:59.140Z,5.28
2022-09-07T00:51:31.175Z,6.72
2022-09-07T00:54:11.199Z,8.65
2022-09-07T00:56:41.956Z,4.72
2022-09-07T00:59:11.173Z,6.85
2022-09-07T01:01:39.312Z,5.40
2022-09-07T01:04:07.091Z,4.75
2022-09-07T01:06:39.629Z,6.70
2022-09-07T01:09:11.014Z,5.38
2022-09-07T01:11:38.496Z,6.63
2022-09-07T01:14:08.920Z,7.93
2022-09-07T01:16:42.012Z,4.00
2022-09-07T01:19:21.043Z,5.00
2022-09-07T01:22:02.883Z,5.63
2022-09-07T01:24:56.350Z,3.85
2022-09-07T01:27:41.597Z,9.25
2022-09-07T01:30:14.379Z,5.18
2022-09-07T01:32:59.558Z,5.20
2022-09-07T01:35:47.710Z,7.25
2022-09-07T01:38:32.831Z,3.97
2022-09-07T01:41:05.688Z,4.13
2022-09-07T01:44:12.305Z,8.60
2022-09-07T01:46:49.865Z,9.77
2022-09-07T01:49:46.255Z,5.28
2022-09-07T01:52:26.192Z,4.60
2022-09-07T01:55:00.200Z,8.32
2022-09-07T01:57:40.730Z,10.70
2022-09-07T02:00:11.008Z,8.23
2022-09-07T02:03:00.894Z,8.55
2022-09-07T02:05:37.232Z,7.43
2022-09-07T02:08:28.754Z,6.00
2022-09-07T02:11:02.142Z,12.00
2022-09-07T02:13:59.907Z,7.35
2022-09-07T02:16:28.448Z,8.60
2022-09-07T02:19:00.499Z,8.98
2022-09-07T02:21:38.134Z,12.90
2022-09-07T02:24:11.875Z,13.38
2022-09-07T02:26:40.615Z,11.73
2022-09-07T02:29:07.898Z,10.48
2022-09-07T02:31:35.038Z,13.10
2022-09-07T02:34:01.935Z,16.52
2022-09-07T02:36:34.069Z,16.08
2022-09-07T02:39:00.665Z,10.95
2022-09-07T02:41:35.448Z,8.65
2022-09-07T02:44:07.391Z,14.23
2022-09-07T02:47:03.181Z,8.30
2022-09-07T02:50:04.439Z,11.70
2022-09-07T02:52:45.552Z,13.05
2022-09-07T02:55:24.410Z,12.30
2022-09-07T02:58:17.074Z,12.77
2022-09-07T03:00:54.999Z,10.82
2022-09-07T03:03:44.531Z,12.57
2022-09-07T03:06:32.922Z,10.77
2022-09-07T03:09:07.120Z,9.95
2022-09-07T03:11:37.554Z,18.65
2022-09-07T03:14:23.012Z,7.30
2022-09-07T03:16:52.121Z,15.05
2022-09-07T03:19:19.710Z,8.30
2022-09-07T03:21:46.494Z,6.80
2022-09-07T03:24:12.971Z,14.05
2022-09-07T03:26:46.334Z,10.45
2022-09-07T03:29:13.422Z,7.43
2022-09-07T03:31:40.704Z,7.35
2022-09-07T03:34:07.298Z,9.68
2022-09-07T03:36:34.698Z,8.25
2022-09-07T03:39:01.335Z,7.35
2022-09-07T03:41:28.711Z,10.70
2022-09-07T03:43:56.071Z,4.85
2022-09-07T03:46:22.819Z,8.30
2022-09-07T03:48:49.721Z,8.02
2022-09-07T03:51:18.471Z,6.65
2022-09-07T03:53:46.321Z,7.72
2022-09-07T03:56:14.487Z,5.60
2022-09-07T03:58:41.411Z,6.88
2022-09-07T04:01:15.772Z,7.75
2022-09-07T04:03:43.731Z,5.65
2022-09-07T04:06:10.874Z,7.18
2022-09-07T04:08:38.914Z,6.10
2022-09-07T04:11:07.620Z,6.57
2022-09-07T04:13:35.803Z,5.13
2022-09-07T04:16:17.784Z,6.65
2022-09-07T04:18:44.658Z,6.72
2022-09-07T04:21:12.210Z,4.93
2022-09-07T04:23:40.284Z,9.60
2022-09-07T04:26:15.956Z,4.72
2022-09-07T04:28:43.093Z,6.10
2022-09-07T04:31:09.984Z,7.13
2022-09-07T04:33:36.828Z,5.85
2022-09-07T04:36:04.723Z,6.30
2022-09-07T04:38:31.901Z,11.38
2022-09-07T04:41:00.581Z,5.45
2022-09-07T04:43:28.495Z,8.38
2022-09-07T04:45:55.831Z,5.28
2022-09-07T04:48:22.487Z,6.57
2022-09-07T04:50:49.244Z,4.47
2022-09-07T04:53:15.804Z,7.75
2022-09-07T04:55:42.533Z,5.97
2022-09-07T04:58:09.672Z,5.13
2022-09-07T05:00:39.455Z,4.63
2022-09-07T05:03:06.251Z,5.45
2022-09-07T05:05:37.432Z,8.90
2022-09-07T05:08:04.034Z,8.32
2022-09-07T05:10:30.831Z,3.15
2022-09-07T05:12:57.704Z,6.68
2022-09-07T05:15:24.385Z,6.55
2022-09-07T05:17:51.333Z,8.98
2022-09-07T05:20:20.489Z,5.85
2022-09-07T05:22:47.755Z,6.18
2022-09-07T05:25:14.712Z,8.15
2022-09-07T05:27:41.583Z,5.40
2022-09-07T05:30:09.400Z,8.40
2022-09-07T05:32:56.426Z,9.35
2022-09-07T05:35:23.252Z,6.38
2022-09-07T05:37:50.630Z,7.28
2022-09-07T05:40:17.657Z,9.15
2022-09-07T05:42:45.027Z,5.60
2022-09-07T05:45:11.844Z,5.65
2022-09-07T05:47:39.253Z,7.57
2022-09-07T05:50:07.499Z,6.45
2022-09-07T05:52:34.034Z,5.55
2022-09-07T05:55:13.359Z,4.55
2022-09-07T05:57:47.942Z,8.75
2022-09-07T06:00:14.638Z,6.85
2022-09-07T06:02:41.901Z,7.53
2022-09-07T06:05:11.034Z,7.43
2022-09-07T06:07:38.322Z,6.65
2022-09-07T06:12:55.190Z,10.82
2022-09-07T06:15:21.892Z,6.28
2022-09-07T06:17:48.771Z,7.00
2022-09-07T06:20:15.354Z,5.88
2022-09-07T06:22:42.463Z,9.35
2022-09-07T06:25:09.307Z,8.60
2022-09-07T06:27:36.351Z,8.02
2022-09-07T06:30:03.839Z,10.13
2022-09-07T06:32:45.914Z,6.97
2022-09-07T06:35:15.036Z,6.35
2022-09-07T06:37:41.629Z,6.18
2022-09-07T06:40:10.693Z,4.05
2022-09-07T06:42:38.105Z,5.18
2022-09-07T06:45:05.416Z,7.85
2022-09-07T06:47:31.859Z,6.40
2022-09-07T06:49:59.071Z,9.32
2022-09-07T06:52:26.238Z,6.68
2022-09-07T06:55:00.170Z,9.88
2022-09-07T06:57:27.691Z,8.25
2022-09-07T06:59:54.261Z,8.23
2022-09-07T07:02:21.322Z,8.07
2022-09-07T07:04:48.178Z,5.22
2022-09-07T07:07:15.060Z,7.35
2022-09-07T07:09:42.009Z,7.15
2022-09-07T07:12:10.359Z,12.30
2022-09-07T07:14:41.071Z,7.28
2022-09-07T07:17:11.095Z,7.88
2022-09-07T07:19:37.615Z,11.68
2022-09-07T07:22:29.589Z,6.93
2022-09-07T07:24:51.022Z,11.75
2022-09-07T07:27:17.676Z,6.65
2022-09-07T07:29:44.389Z,13.30
2022-09-07T07:32:10.885Z,8.65
2022-09-07T07:34:37.472Z,6.78
2022-09-07T07:37:04.163Z,6.32
2022-09-07T07:42:18.315Z,8.13
2022-09-07T07:44:45.311Z,7.07
2022-09-07T07:47:11.726Z,5.13
2022-09-07T07:49:38.474Z,5.72
2022-09-07T07:54:52.688Z,10.73
2022-09-07T07:57:19.298Z,5.50
2022-09-07T07:59:46.102Z,8.07
2022-09-07T08:02:17.027Z,8.65
2022-09-07T08:04:43.756Z,9.05
2022-09-07T08:07:11.943Z,5.35
2022-09-07T08:09:43.401Z,10.75
2022-09-07T08:12:13.579Z,5.93
2022-09-07T08:14:41.103Z,8.57
2022-09-07T08:17:09.890Z,8.82
2022-09-07T08:19:36.609Z,11.27
2022-09-07T08:22:03.839Z,7.70
2022-09-07T08:24:31.648Z,13.45
2022-09-07T08:26:58.343Z,9.98
2022-09-07T08:29:24.767Z,7.15
2022-09-07T08:31:51.273Z,7.30
2022-09-07T08:34:17.947Z,10.23
2022-09-07T08:36:45.071Z,14.35
2022-09-07T08:39:11.585Z,9.05
2022-09-07T08:41:56.341Z,9.73
2022-09-07T08:44:34.923Z,6.13
2022-09-07T08:47:49.436Z,6.20
2022-09-07T08:50:43.789Z,10.35
2022-09-07T08:53:17.087Z,6.20
2022-09-07T08:55:50.806Z,7.50
2022-09-07T08:58:48.090Z,9.48
2022-09-07T09:02:27.027Z,6.45
2022-09-07T09:05:16.369Z,8.65
2022-09-07T09:07:54.100Z,9.68
2022-09-07T09:10:46.509Z,8.82
2022-09-07T09:13:19.565Z,10.65
2022-09-07T09:16:01.871Z,12.35
2022-09-07T09:18:39.551Z,11.55
2022-09-07T09:21:14.696Z,6.57
2022-09-07T09:23:43.168Z,5.80
2022-09-07T09:26:26.438Z,3.85
2022-09-07T09:28:53.076Z,5.18
2022-09-07T09:31:22.250Z,5.18
2022-09-07T09:34:07.026Z,4.88
2022-09-07T09:36:42.916Z,13.02
2022-09-07T09:39:31.399Z,7.40
2022-09-07T09:42:11.696Z,6.60
2022-09-07T09:44:39.135Z,8.50
2022-09-07T09:49:53.808Z,6.55
2022-09-07T09:52:32.819Z,6.38
2022-09-07T09:55:33.125Z,5.85
2022-09-07T10:03:59.651Z,8.35
2022-09-07T10:06:28.115Z,8.75
2022-09-07T10:08:59.984Z,5.40
2022-09-07T10:14:41.891Z,8.23
2022-09-07T10:17:24.904Z,4.03
2022-09-07T10:19:52.647Z,7.25
2022-09-07T10:22:32.063Z,7.93
2022-09-07T10:25:00.798Z,7.78
2022-09-07T10:27:36.859Z,4.57
2022-09-07T10:30:13.176Z,4.38
2022-09-07T10:32:54.578Z,4.47
2022-09-07T10:35:31.419Z,10.68
2022-09-07T10:38:19.728Z,7.88
2022-09-07T10:41:07.311Z,7.15
2022-09-07T10:43:50.170Z,6.93
2022-09-07T10:46:58.576Z,5.00
2022-09-07T10:49:35.684Z,6.80
2022-09-07T10:52:14.276Z,5.68
2022-09-07T10:54:50.003Z,5.40
2022-09-07T10:57:48.913Z,6.15
2022-09-07T11:00:18.508Z,5.03
2022-09-07T11:06:01.054Z,4.80
2022-09-07T11:09:18.133Z,7.53
2022-09-07T11:12:01.138Z,4.05
2022-09-07T11:14:31.350Z,6.30
2022-09-07T11:17:01.811Z,5.03
2022-09-07T11:19:58.517Z,4.18
2022-09-07T11:22:39.981Z,9.40
2022-09-07T11:27:58.686Z,5.50
2022-09-07T11:30:31.284Z,6.50
2022-09-07T11:33:03.370Z,3.50
2022-09-07T11:35:41.075Z,6.78
2022-09-07T11:38:22.687Z,5.22
2022-09-07T11:41:02.121Z,8.65
2022-09-07T11:43:35.044Z,5.55
2022-09-07T11:46:07.867Z,6.88
2022-09-07T11:48:49.167Z,5.68
2022-09-07T11:51:36.984Z,4.72
2022-09-07T11:54:13.324Z,3.78
2022-09-07T11:56:45.687Z,4.47
2022-09-07T11:59:18.749Z,3.28
2022-09-07T12:02:16.267Z,2.92
2022-09-07T12:05:04.394Z,2.85
2022-09-07T12:07:36.983Z,2.60
2022-09-07T12:10:28.872Z,6.25
2022-09-07T12:13:30.196Z,3.50
2022-09-07T12:16:23.245Z,4.47
2022-09-07T12:19:26.732Z,3.70
2022-09-07T12:21:57.716Z,2.70
2022-09-07T12:24:44.463Z,4.57
2022-09-07T12:27:20.226Z,4.18
2022-09-07T12:29:48.356Z,1.85
2022-09-07T12:32:54.185Z,2.70
2022-09-07T12:35:37.263Z,4.75
2022-09-07T12:38:26.667Z,2.47
2022-09-07T12:41:23.229Z,5.47
2022-09-07T12:43:49.816Z,4.13
2022-09-07T12:46:46.309Z,7.57
2022-09-07T12:49:28.072Z,6.30
2022-09-07T12:52:15.287Z,5.13
2022-09-07T12:55:25.784Z,5.15
2022-09-07T12:58:24.128Z,3.08
2022-09-07T13:01:10.236Z,1.95
2022-09-07T13:04:21.440Z,7.85
2022-09-07T13:07:26.240Z,3.10
2022-09-07T13:09:58.144Z,9.80
2022-09-07T13:12:54.756Z,3.28
2022-09-07T13:15:37.926Z,8.33
2022-09-07T13:18:05.066Z,6.55
2022-09-07T13:20:36.085Z,6.97
2022-09-07T13:23:24.940Z,7.32
2022-09-07T13:25:54.386Z,2.92
2022-09-07T13:28:27.050Z,7.10
2022-09-07T13:31:09.583Z,6.43
2022-09-07T13:33:35.999Z,3.00
2022-09-07T13:36:05.264Z,3.10
2022-09-07T13:38:35.339Z,3.50
2022-09-07T13:41:15.173Z,2.85
2022-09-07T13:43:50.255Z,6.65
2022-09-07T13:46:28.818Z,2.58
2022-09-07T13:49:17.799Z,3.30
2022-09-07T13:51:55.754Z,6.07
2022-09-07T13:54:28.419Z,3.00
2022-09-07T13:57:13.967Z,4.22
2022-09-07T13:59:41.694Z,1.80
2022-09-07T14:02:22.830Z,5.07
2022-09-07T14:04:51.779Z,4.05
2022-09-07T14:07:24.313Z,2.40
2022-09-07T14:10:05.119Z,5.10
2022-09-07T14:12:31.666Z,3.65
2022-09-07T14:15:19.665Z,8.27
2022-09-07T14:17:46.619Z,3.70
2022-09-07T14:20:15.591Z,2.35
2022-09-07T14:22:43.582Z,12.43
2022-09-07T14:25:19.539Z,3.38
2022-09-07T14:27:47.988Z,4.00
2022-09-07T14:30:18.981Z,3.00
2022-09-07T14:32:52.585Z,3.42
2022-09-07T14:35:22.608Z,4.10
2022-09-07T14:40:21.689Z,2.00
2022-09-07T14:42:49.958Z,4.50
2022-09-07T14:45:37.778Z,2.97
2022-09-07T14:48:13.084Z,5.40
2022-09-07T14:50:41.236Z,2.30
2022-09-07T14:56:08.987Z,4.95
2022-09-07T14:58:35.505Z,1.67
2022-09-07T15:04:01.390Z,1.75
2022-09-07T15:09:41.907Z,2.15
2022-09-07T15:12:37.945Z,2.28
2022-09-07T15:15:18.242Z,3.15
2022-09-07T15:17:45.617Z,1.60
2022-09-07T15:20:32.608Z,2.38
2022-09-07T15:22:59.463Z,3.83
2022-09-07T15:25:25.953Z,1.52
2022-09-07T15:27:54.387Z,4.30
2022-09-07T15:30:20.989Z,1.85
2022-09-07T15:32:47.409Z,1.67
2022-09-07T15:35:14.047Z,2.25
2022-09-07T15:40:30.090Z,4.18
2022-09-07T15:43:00.301Z,4.43
2022-09-07T15:45:27.288Z,2.45
2022-09-07T15:47:54.169Z,1.65
2022-09-07T15:50:23.112Z,2.38
2022-09-07T15:52:50.248Z,2.03
2022-09-07T15:55:18.074Z,1.75
2022-09-07T15:57:49.298Z,3.97
2022-09-07T16:00:18.217Z,2.75
2022-09-07T16:05:35.024Z,3.35
2022-09-07T16:11:05.467Z,4.65
2022-09-07T16:13:33.719Z,3.30
2022-09-07T16:16:00.513Z,2.45
2022-09-07T16:18:31.150Z,4.47
2022-09-07T16:21:13.466Z,2.35
2022-09-07T16:23:43.095Z,3.55
2022-09-07T16:26:11.183Z,3.03
2022-09-07T16:28:43.616Z,1.98
2022-09-07T16:31:15.199Z,4.55
2022-09-07T16:33:42.061Z,2.35
2022-09-07T16:36:16.111Z,3.80
2022-09-07T16:38:46.035Z,4.15
2022-09-07T16:41:16.636Z,3.03
2022-09-07T16:43:43.985Z,2.33
2022-09-07T16:46:14.237Z,3.45
2022-09-07T16:48:41.272Z,3.08
2022-09-07T16:51:09.575Z,3.80
2022-09-07T16:53:37.312Z,2.22
2022-09-07T16:56:09.637Z,4.57
2022-09-07T16:58:40.050Z,3.03
2022-09-07T17:01:08.947Z,5.28
2022-09-07T17:03:39.256Z,5.25
2022-09-07T17:06:07.896Z,2.85
2022-09-07T17:08:35.787Z,4.07
2022-09-07T17:11:05.157Z,4.43
2022-09-07T17:13:33.238Z,3.40
2022-09-07T17:16:11.043Z,2.83
2022-09-07T17:21:25.470Z,2.55
2022-09-07T17:23:55.801Z,3.08
2022-09-07T17:26:26.465Z,6.10
2022-09-07T17:28:56.584Z,6.30
2022-09-07T17:34:16.043Z,4.80
2022-09-07T17:36:42.788Z,3.60
2022-09-07T17:39:18.857Z,2.42
2022-09-07T17:41:47.499Z,9.95
2022-09-07T17:44:14.685Z,4.40
2022-09-07T17:46:41.365Z,8.63
2022-09-07T17:49:12.094Z,2.80
2022-09-07T17:51:38.884Z,3.67
2022-09-07T17:54:10.861Z,5.30
2022-09-07T17:56:38.841Z,3.67
2022-09-07T18:01:53.816Z,4.68
2022-09-07T18:04:21.040Z,4.20
2022-09-07T18:06:47.594Z,4.30
2022-09-07T18:09:14.132Z,5.32
2022-09-07T18:11:47.144Z,3.25
2022-09-07T18:14:15.053Z,5.60
2022-09-07T18:16:42.737Z,7.15
2022-09-07T18:19:10.990Z,9.88
2022-09-07T18:21:38.401Z,7.25
2022-09-07T18:24:08.432Z,5.47
2022-09-07T18:26:40.211Z,3.58
2022-09-07T18:29:15.909Z,7.10
2022-09-07T18:31:53.034Z,4.63
2022-09-07T18:34:20.719Z,4.22
2022-09-07T18:36:47.670Z,4.60
2022-09-07T18:39:14.405Z,3.35
2022-09-07T18:41:41.934Z,2.47
2022-09-07T18:45:27.299Z,4.93
2022-09-07T18:46:55.449Z,4.70
2022-09-07T18:49:21.884Z,4.13
2022-09-07T18:54:35.165Z,3.58
2022-09-07T18:57:01.623Z,1.83
2022-09-07T18:59:29.538Z,4.57
2022-09-07T19:02:00.096Z,4.38
2022-09-07T19:05:49.463Z,4.47
2022-09-07T19:07:16.877Z,3.78
2022-09-07T19:09:43.577Z,2.10
2022-09-07T19:12:10.004Z,5.97
2022-09-07T19:14:36.520Z,3.13
2022-09-07T19:17:03.070Z,2.03
2022-09-07T19:19:29.529Z,2.55
2022-09-07T19:21:57.904Z,3.30
2022-09-07T19:24:25.599Z,7.75
2022-09-07T19:26:54.708Z,5.80
2022-09-07T19:29:23.503Z,4.60
2022-09-07T19:32:11.642Z,5.32
2022-09-07T19:34:41.563Z,2.95
2022-09-07T19:37:11.105Z,4.13
2022-09-07T19:39:38.338Z,4.65
2022-09-07T19:42:06.462Z,4.03
2022-09-07T19:44:33.847Z,3.53
2022-09-07T19:47:00.723Z,3.45
2022-09-07T19:49:28.098Z,2.03
2022-09-07T19:51:55.056Z,3.13
2022-09-07T19:54:21.438Z,2.65
2022-09-07T19:56:48.188Z,2.33
2022-09-07T19:59:14.736Z,5.53
2022-09-07T20:01:45.794Z,3.40
2022-09-07T20:04:18.982Z,2.83
2022-09-07T20:06:49.440Z,5.78
2022-09-07T20:09:17.443Z,1.20
2022-09-07T20:11:46.814Z,4.85
2022-09-07T20:14:15.397Z,5.32
2022-09-07T20:16:42.135Z,3.78
2022-09-07T20:19:11.684Z,3.35
2022-09-07T20:21:38.232Z,6.97
2022-09-07T20:24:04.765Z,2.13
2022-09-07T20:26:32.585Z,5.47
2022-09-07T20:29:23.309Z,2.28
2022-09-07T20:31:47.180Z,2.88
2022-09-07T20:34:14.118Z,2.05
2022-09-07T20:36:40.543Z,1.20
2022-09-07T20:39:07.582Z,1.30
2022-09-07T20:41:35.189Z,2.30
2022-09-07T20:44:03.370Z,3.00
2022-09-07T20:46:31.763Z,2.33
2022-09-07T20:48:58.670Z,2.05
2022-09-07T20:51:26.182Z,4.95
2022-09-07T20:53:52.658Z,5.78
2022-09-07T20:56:21.849Z,4.18
2022-09-07T20:58:52.956Z,1.35
2022-09-07T21:01:21.511Z,2.50
2022-09-07T21:03:57.135Z,1.58
2022-09-07T21:06:25.385Z,3.30
2022-09-07T21:08:53.301Z,1.65
2022-09-07T21:11:22.336Z,2.00
2022-09-07T21:13:56.022Z,1.63
2022-09-07T21:16:22.714Z,2.35
2022-09-07T21:18:54.631Z,1.73
2022-09-07T21:21:22.873Z,2.17
2022-09-07T21:23:54.020Z,2.38
2022-09-07T21:26:20.991Z,1.45
2022-09-07T21:28:47.940Z,3.20
2022-09-07T21:31:14.362Z,3.13
2022-09-07T21:33:41.208Z,3.00
2022-09-07T21:36:10.057Z,2.60
2022-09-07T21:38:37.837Z,3.55
2022-09-07T21:41:13.846Z,2.10
2022-09-07T21:43:41.193Z,3.67
2022-09-07T21:46:18.807Z,4.05
2022-09-07T21:48:46.476Z,9.98
2022-09-07T21:51:16.857Z,6.88
2022-09-07T21:56:12.427Z,3.45
2022-09-07T21:58:40.329Z,3.83
2022-09-07T22:01:17.046Z,1.05
2022-09-07T22:03:46.354Z,5.13
2022-09-07T22:06:13.280Z,2.28
2022-09-07T22:08:41.848Z,2.25
2022-09-07T22:11:13.777Z,3.25
2022-09-07T22:13:40.590Z,4.65
2022-09-07T22:16:07.798Z,2.22
2022-09-07T22:18:36.927Z,4.68
2022-09-07T22:21:10.160Z,2.72
2022-09-07T22:23:39.731Z,2.25
2022-09-07T22:26:07.712Z,2.42
2022-09-07T22:28:35.249Z,1.05
2022-09-07T22:31:10.197Z,1.23
2022-09-07T22:33:36.890Z,1.58
2022-09-07T22:36:15.380Z,1.52
2022-09-07T22:38:43.815Z,1.63
2022-09-07T22:41:13.670Z,3.53
2022-09-07T22:43:40.946Z,2.28
2022-09-07T22:46:07.988Z,1.75
2022-09-07T22:48:34.857Z,2.17
2022-09-07T22:51:01.948Z,5.47
2022-09-07T22:53:31.648Z,3.60
2022-09-07T22:55:59.267Z,1.60
2022-09-07T22:58:28.865Z,2.88
2022-09-07T23:01:01.237Z,2.33
2022-09-07T23:03:29.153Z,1.50
2022-09-07T23:05:56.720Z,1.92
2022-09-07T23:08:27.382Z,1.13
2022-09-07T23:10:53.990Z,3.92
2022-09-07T23:13:21.006Z,2.63
2022-09-07T23:15:48.148Z,1.02
2022-09-07T23:18:16.199Z,1.00
2022-09-07T23:20:43.154Z,1.63
2022-09-07T23:23:10.395Z,2.65
2022-09-07T23:25:38.365Z,2.30
2022-09-07T23:28:06.458Z,1.30
2022-09-07T23:30:35.398Z,2.83
2022-09-07T23:33:03.388Z,1.67
2022-09-07T23:35:30.155Z,1.38
2022-09-07T23:37:56.863Z,5.53
2022-09-07T23:40:24.235Z,3.83
2022-09-07T23:42:50.682Z,4.00
2022-09-07T23:45:17.372Z,2.15
2022-09-07T23:47:44.186Z,2.00
2022-09-07T23:50:10.864Z,3.20
2022-09-07T23:52:37.863Z,4.95
2022-09-07T23:55:05.468Z,11.75
2022-09-07T23:57:32.381Z,11.05
2022-09-07T23:59:59.324Z,5.03
